createdAt,value
2022-11-02T00:00:24.832Z,20.27
2022-11-02T00:03:26.817Z,20.48
2022-11-02T00:06:28.773Z,18.13
2022-11-02T00:09:30.723Z,19.17
2022-11-02T00:12:32.638Z,19.42
2022-11-02T00:15:35.325Z,19.27
2022-11-02T00:18:37.471Z,19.47
2022-11-02T00:21:40.569Z,19.13
2022-11-02T00:24:42.691Z,19.38
2022-11-02T00:27:44.632Z,19.13
2022-11-02T00:30:46.600Z,19.23
2022-11-02T00:33:48.582Z,18.15
2022-11-02T00:36:55.248Z,15.52
2022-11-02T00:39:57.540Z,17.13
2022-11-02T00:42:59.448Z,16.93
2022-11-02T00:46:01.605Z,17.67
2022-11-02T00:49:03.557Z,17.92
2022-11-02T00:52:07.941Z,17.67
2022-11-02T00:55:11.106Z,17.90
2022-11-02T00:58:16.326Z,18.55
2022-11-02T01:01:18.565Z,18.58
2022-11-02T01:04:20.619Z,16.40
2022-11-02T01:07:22.538Z,17.05
2022-11-02T01:10:26.229Z,17.13
2022-11-02T01:13:28.321Z,15.77
2022-11-02T01:16:30.287Z,17.20
2022-11-02T01:19:32.277Z,16.30
2022-11-02T01:22:34.396Z,17.80
2022-11-02T01:25:36.351Z,17.80
2022-11-02T01:28:39.408Z,18.37
2022-11-02T01:31:41.374Z,17.50
2022-11-02T01:34:43.590Z,19.60
2022-11-02T01:37:45.578Z,17.48
2022-11-02T01:40:47.731Z,17.83
2022-11-02T01:43:51.901Z,17.73
2022-11-02T01:46:55.027Z,18.40
2022-11-02T01:50:18.817Z,16.67
2022-11-02T01:53:20.821Z,18.40
2022-11-02T01:59:36.260Z,15.55
2022-11-02T02:02:44.734Z,15.15
2022-11-02T02:05:54.951Z,14.67
2022-11-02T02:08:59.128Z,13.23
2022-11-02T02:12:05.237Z,15.00
2022-11-02T02:15:07.540Z,16.02
2022-11-02T02:18:14.512Z,15.30
2022-11-02T02:21:35.283Z,15.85
2022-11-02T02:24:55.304Z,14.50
2022-11-02T02:28:15.852Z,15.10
2022-11-02T02:31:26.838Z,15.57
2022-11-02T02:34:41.750Z,15.03
2022-11-02T02:37:51.376Z,14.77
2022-11-02T02:41:03.732Z,14.32
2022-11-02T02:44:10.731Z,14.47
2022-11-02T02:47:16.220Z,13.77
2022-11-02T02:50:20.835Z,15.63
2022-11-02T02:53:26.198Z,14.65
2022-11-02T02:56:30.366Z,15.87
2022-11-02T02:59:34.264Z,14.30
2022-11-02T03:02:37.678Z,15.73
2022-11-02T03:05:39.726Z,14.63
2022-11-02T03:08:52.757Z,16.23
2022-11-02T03:12:00.639Z,14.80
2022-11-02T03:15:05.729Z,15.35
2022-11-02T03:18:25.983Z,15.35
2022-11-02T03:21:30.313Z,15.97
2022-11-02T03:24:35.125Z,15.50
2022-11-02T03:27:48.531Z,15.70
2022-11-02T03:30:54.851Z,15.23
2022-11-02T03:34:03.197Z,14.77
2022-11-02T03:37:12.408Z,14.23
2022-11-02T03:40:34.100Z,15.70
2022-11-02T03:43:37.207Z,14.93
2022-11-02T03:46:40.678Z,14.80
2022-11-02T03:49:42.889Z,16.53
2022-11-02T03:52:46.381Z,15.55
2022-11-02T03:55:51.767Z,16.27
2022-11-02T03:58:54.366Z,15.57
2022-11-02T04:01:56.764Z,15.73
2022-11-02T04:04:58.977Z,17.08
2022-11-02T04:08:19.777Z,17.15
2022-11-02T04:11:49.322Z,16.97
2022-11-02T04:14:51.389Z,14.57
2022-11-02T04:18:12.734Z,16.27
2022-11-02T04:21:14.876Z,16.05
2022-11-02T04:24:36.014Z,17.20
2022-11-02T04:27:37.998Z,15.68
2022-11-02T04:30:40.202Z,15.90
2022-11-02T04:33:42.466Z,15.35
2022-11-02T04:36:50.491Z,16.57
2022-11-02T04:39:52.747Z,15.93
2022-11-02T04:42:54.762Z,16.02
2022-11-02T04:45:58.105Z,14.82
2022-11-02T04:49:00.482Z,17.73
2022-11-02T04:52:03.582Z,14.05
2022-11-02T04:55:08.798Z,15.18
2022-11-02T04:58:11.216Z,13.60
2022-11-02T05:01:15.635Z,14.00
2022-11-02T05:04:18.664Z,13.73
2022-11-02T05:07:22.295Z,17.35
2022-11-02T05:10:25.349Z,14.17
2022-11-02T05:13:28.562Z,14.32
2022-11-02T05:16:33.354Z,15.02
2022-11-02T05:19:36.094Z,15.85
2022-11-02T05:22:43.269Z,13.80
2022-11-02T05:26:00.182Z,15.68
2022-11-02T05:29:03.926Z,14.55
2022-11-02T05:32:06.893Z,16.30
2022-11-02T05:35:09.435Z,15.87
2022-11-02T05:38:11.443Z,17.10
2022-11-02T05:41:13.587Z,14.73
2022-11-02T05:44:16.815Z,17.10
2022-11-02T05:47:19.606Z,16.13
2022-11-02T05:50:21.814Z,15.43
2022-11-02T05:53:31.635Z,17.98
2022-11-02T05:56:33.737Z,18.25
2022-11-02T05:59:35.703Z,18.75
2022-11-02T06:02:37.658Z,18.13
2022-11-02T06:05:39.687Z,17.70
2022-11-02T06:08:41.681Z,18.30
2022-11-02T06:11:43.656Z,18.35
2022-11-02T06:14:45.619Z,17.83
2022-11-02T06:17:48.787Z,20.70
2022-11-02T06:20:50.790Z,21.67
2022-11-02T06:23:52.740Z,20.95
2022-11-02T06:26:55.498Z,26.20
2022-11-02T06:29:58.528Z,23.33
2022-11-02T06:33:03.070Z,21.05
2022-11-02T06:36:08.558Z,20.33
2022-11-02T06:39:10.629Z,19.48
2022-11-02T06:42:12.710Z,19.87
2022-11-02T06:45:14.749Z,21.33
2022-11-02T06:48:16.878Z,20.92
2022-11-02T06:51:18.946Z,20.98
2022-11-02T06:54:21.440Z,21.65
2022-11-02T06:57:23.740Z,22.07
2022-11-02T07:00:26.580Z,19.83
2022-11-02T07:03:29.345Z,18.10
2022-11-02T07:06:31.482Z,19.08
2022-11-02T07:09:33.809Z,20.03
2022-11-02T07:12:35.949Z,19.58
2022-11-02T07:15:38.102Z,19.58
2022-11-02T07:18:40.699Z,19.87
2022-11-02T07:21:46.630Z,20.00
2022-11-02T07:24:50.149Z,18.65
2022-11-02T07:27:52.477Z,18.35
2022-11-02T07:30:55.469Z,19.42
2022-11-02T07:33:57.691Z,19.50
2022-11-02T07:36:59.962Z,18.58
2022-11-02T07:40:03.248Z,17.75
2022-11-02T07:43:07.308Z,19.10
2022-11-02T07:46:17.400Z,21.10
2022-11-02T07:49:21.621Z,20.40
2022-11-02T07:52:23.934Z,19.83
2022-11-02T07:55:27.417Z,18.20
2022-11-02T07:58:29.708Z,18.42
2022-11-02T08:01:31.990Z,19.37
2022-11-02T08:04:34.304Z,21.00
2022-11-02T08:07:36.431Z,22.15
2022-11-02T08:10:40.449Z,21.13
2022-11-02T08:13:42.790Z,20.27
2022-11-02T08:16:45.311Z,16.43
2022-11-02T08:19:47.341Z,15.18
2022-11-02T08:22:49.457Z,14.27
2022-11-02T08:25:52.422Z,17.85
2022-11-02T08:28:54.419Z,15.30
2022-11-02T08:31:56.439Z,15.90
2022-11-02T08:34:58.588Z,16.58
2022-11-02T08:38:00.605Z,15.52
2022-11-02T08:41:04.509Z,15.18
2022-11-02T08:44:08.721Z,15.53
2022-11-02T08:47:11.298Z,15.13
2022-11-02T08:50:15.178Z,15.00
2022-11-02T08:53:18.734Z,13.70
2022-11-02T08:56:20.994Z,14.87
2022-11-02T08:59:23.358Z,13.80
2022-11-02T09:02:25.589Z,14.43
2022-11-02T09:05:28.334Z,15.15
2022-11-02T09:08:30.733Z,13.40
2022-11-02T09:11:33.015Z,13.53
2022-11-02T09:14:36.288Z,12.53
2022-11-02T09:17:42.766Z,13.45
2022-11-02T09:20:46.499Z,12.50
2022-11-02T09:23:49.296Z,13.25
2022-11-02T09:26:52.599Z,14.10
2022-11-02T09:29:54.695Z,12.67
2022-11-02T09:32:57.829Z,12.55
2022-11-02T09:36:03.462Z,14.30
2022-11-02T09:39:05.625Z,13.48
2022-11-02T09:42:13.818Z,14.13
2022-11-02T09:45:17.204Z,13.30
2022-11-02T09:48:27.840Z,12.52
2022-11-02T09:51:33.451Z,13.30
2022-11-02T09:54:47.545Z,13.85
2022-11-02T09:57:51.670Z,11.30
2022-11-02T10:01:01.613Z,11.57
2022-11-02T10:04:13.035Z,13.02
2022-11-02T10:07:33.793Z,13.00
2022-11-02T10:10:40.391Z,12.07
2022-11-02T10:13:56.665Z,12.63
2022-11-02T10:17:11.332Z,12.07
2022-11-02T10:20:22.468Z,12.25
2022-11-02T10:23:33.654Z,12.93
2022-11-02T10:26:37.120Z,12.45
2022-11-02T10:29:57.377Z,12.83
2022-11-02T10:33:00.281Z,13.30
2022-11-02T10:36:23.689Z,12.18
2022-11-02T10:39:33.271Z,12.32
2022-11-02T10:42:44.186Z,12.35
2022-11-02T10:45:46.482Z,13.37
2022-11-02T10:48:58.751Z,12.60
2022-11-02T10:52:00.739Z,13.40
2022-11-02T10:55:03.907Z,12.10
2022-11-02T10:58:06.985Z,13.25
2022-11-02T11:01:10.566Z,12.83
2022-11-02T11:04:24.566Z,13.23
2022-11-02T11:07:27.443Z,12.55
2022-11-02T11:10:32.060Z,12.20
2022-11-02T11:20:29.050Z,12.57
2022-11-02T11:23:31.213Z,12.30
2022-11-02T11:26:33.484Z,13.10
2022-11-02T11:29:38.072Z,12.52
2022-11-02T11:32:40.573Z,12.97
2022-11-02T11:35:47.836Z,13.60
2022-11-02T11:38:50.588Z,12.10
2022-11-02T11:41:52.723Z,12.88
2022-11-02T11:44:54.976Z,12.55
2022-11-02T11:48:06.954Z,12.07
2022-11-02T11:51:22.842Z,16.60
2022-11-02T11:54:33.567Z,13.07
2022-11-02T12:00:42.644Z,12.88
2022-11-02T12:03:53.818Z,15.10
2022-11-02T12:07:14.372Z,14.17
2022-11-02T12:10:22.226Z,13.23
2022-11-02T12:13:37.359Z,13.13
2022-11-02T12:16:56.613Z,13.90
2022-11-02T12:20:17.494Z,12.67
2022-11-02T12:23:22.378Z,19.83
2022-11-02T12:26:31.466Z,16.00
2022-11-02T12:29:47.392Z,13.90
2022-11-02T12:32:52.466Z,12.68
2022-11-02T12:36:03.180Z,11.83
2022-11-02T12:39:08.999Z,11.63
2022-11-02T12:42:11.143Z,12.50
2022-11-02T12:45:26.249Z,10.93
2022-11-02T12:48:48.624Z,12.48
2022-11-02T12:52:01.766Z,22.23
2022-11-02T12:55:06.124Z,15.13
2022-11-02T12:58:21.127Z,12.65
2022-11-02T13:01:26.013Z,13.45
2022-11-02T13:04:30.241Z,12.40
2022-11-02T13:07:37.490Z,11.53
2022-11-02T13:10:43.454Z,15.93
2022-11-02T13:13:47.685Z,13.57
2022-11-02T13:16:53.654Z,12.20
2022-11-02T13:19:55.800Z,15.82
2022-11-02T13:23:16.548Z,12.47
2022-11-02T13:26:30.184Z,13.97
2022-11-02T13:29:34.940Z,14.38
2022-11-02T13:32:38.810Z,14.05
2022-11-02T13:35:44.047Z,11.57
2022-11-02T13:38:48.928Z,12.20
2022-11-02T13:41:50.933Z,12.97
2022-11-02T13:45:15.407Z,13.13
2022-11-02T13:48:17.755Z,12.48
2022-11-02T13:51:25.311Z,24.65
2022-11-02T13:54:53.851Z,18.43
2022-11-02T13:57:57.753Z,21.53
2022-11-02T14:01:01.762Z,17.08
2022-11-02T14:04:04.008Z,16.80
2022-11-02T14:07:16.543Z,12.93
2022-11-02T14:10:19.008Z,12.77
2022-11-02T14:13:40.986Z,13.27
2022-11-02T14:16:45.756Z,14.93
2022-11-02T14:19:47.762Z,16.75
2022-11-02T14:23:08.359Z,20.95
2022-11-02T14:26:29.623Z,16.10
2022-11-02T14:29:46.726Z,15.90
2022-11-02T14:32:58.510Z,17.13
2022-11-02T14:36:03.063Z,18.45
2022-11-02T14:39:14.223Z,30.42
2022-11-02T14:42:22.628Z,18.70
2022-11-02T14:45:28.061Z,16.30
2022-11-02T14:48:31.184Z,30.25
2022-11-02T14:51:36.342Z,25.60
2022-11-02T14:54:57.086Z,23.75
2022-11-02T14:58:04.262Z,18.30
2022-11-02T15:01:13.597Z,18.37
2022-11-02T15:04:15.605Z,28.92
2022-11-02T15:07:22.435Z,25.52
2022-11-02T15:10:30.630Z,31.08
2022-11-02T15:13:37.055Z,24.20
2022-11-02T15:16:39.650Z,23.77
2022-11-02T15:19:51.878Z,24.60
2022-11-02T15:23:00.203Z,27.58
2022-11-02T15:26:05.781Z,25.20
2022-11-02T15:29:14.343Z,33.10
2022-11-02T15:32:22.642Z,26.90
2022-11-02T15:35:27.131Z,26.48
2022-11-02T15:38:33.815Z,28.55
2022-11-02T15:41:49.554Z,29.30
2022-11-02T15:45:05.618Z,26.43
2022-11-02T15:48:26.557Z,23.13
2022-11-02T15:51:28.613Z,27.05
2022-11-02T15:54:46.030Z,23.85
2022-11-02T15:57:51.353Z,26.60
2022-11-02T16:01:12.058Z,27.03
2022-11-02T16:04:24.150Z,28.57
2022-11-02T16:07:33.220Z,28.33
2022-11-02T16:10:47.803Z,34.97
2022-11-02T16:14:08.061Z,35.50
2022-11-02T16:17:20.428Z,34.13
2022-11-02T16:20:22.420Z,35.30
2022-11-02T16:23:25.806Z,30.38
2022-11-02T16:26:29.212Z,32.30
2022-11-02T16:29:32.121Z,31.90
2022-11-02T16:32:34.133Z,35.93
2022-11-02T16:35:36.660Z,42.37
2022-11-02T16:38:39.199Z,32.08
2022-11-02T16:41:41.398Z,33.78
2022-11-02T16:44:43.404Z,31.35
2022-11-02T16:47:45.653Z,31.37
2022-11-02T16:51:16.342Z,27.37
2022-11-02T16:54:25.010Z,29.10
2022-11-02T16:57:29.112Z,29.17
2022-11-02T17:00:31.083Z,28.48
2022-11-02T17:03:33.746Z,27.63
2022-11-02T17:06:39.803Z,31.80
2022-11-02T17:09:42.322Z,28.80
2022-11-02T17:12:45.277Z,27.23
2022-11-02T17:15:51.450Z,32.60
2022-11-02T17:18:53.401Z,30.43
2022-11-02T17:22:04.461Z,31.52
2022-11-02T17:25:14.044Z,31.42
2022-11-02T17:28:45.404Z,30.75
2022-11-02T17:31:52.969Z,32.63
2022-11-02T17:34:56.443Z,32.70
2022-11-02T17:37:58.331Z,33.03
2022-11-02T17:41:00.727Z,45.38
2022-11-02T17:44:03.229Z,34.40
2022-11-02T17:47:12.490Z,36.50
2022-11-02T17:50:14.559Z,42.30
2022-11-02T17:53:16.524Z,42.58
2022-11-02T17:56:18.474Z,38.72
2022-11-02T17:59:20.389Z,34.43
2022-11-02T18:02:22.436Z,35.05
2022-11-02T18:05:26.066Z,37.20
2022-11-02T18:08:28.195Z,41.88
2022-11-02T18:11:30.623Z,39.07
2022-11-02T18:14:32.550Z,39.63
2022-11-02T18:17:35.190Z,40.35
2022-11-02T18:20:41.522Z,40.03
2022-11-02T18:23:44.673Z,39.38
2022-11-02T18:26:47.165Z,36.53
2022-11-02T18:29:49.243Z,37.50
2022-11-02T18:32:51.184Z,38.28
2022-11-02T18:35:53.130Z,39.95
2022-11-02T18:38:55.107Z,37.67
2022-11-02T18:41:57.046Z,37.97
2022-11-02T18:45:00.310Z,39.45
2022-11-02T18:48:02.515Z,37.38
2022-11-02T18:51:04.860Z,37.17
2022-11-02T18:54:06.782Z,38.80
2022-11-02T18:57:08.719Z,40.97
2022-11-02T19:00:12.263Z,42.05
2022-11-02T19:03:16.743Z,44.73
2022-11-02T19:06:37.547Z,42.80
2022-11-02T19:09:39.545Z,44.50
2022-11-02T19:12:41.531Z,51.40
2022-11-02T19:15:43.486Z,59.13
2022-11-02T19:18:45.431Z,62.37
2022-11-02T19:21:47.428Z,61.00
2022-11-02T19:24:49.827Z,56.10
2022-11-02T19:27:51.776Z,50.57
2022-11-02T19:30:53.718Z,51.43
2022-11-02T19:33:55.923Z,56.00
2022-11-02T19:36:58.125Z,51.88
2022-11-02T19:40:00.138Z,50.05
2022-11-02T19:43:02.226Z,46.63
2022-11-02T19:46:04.836Z,47.10
2022-11-02T19:49:06.848Z,45.72
2022-11-02T19:52:08.792Z,44.40
2022-11-02T19:55:10.682Z,46.63
2022-11-02T19:58:13.289Z,44.20
2022-11-02T20:01:19.443Z,45.92
2022-11-02T20:04:21.487Z,47.07
2022-11-02T20:07:23.422Z,44.70
2022-11-02T20:10:25.367Z,48.30
2022-11-02T20:13:27.298Z,48.25
2022-11-02T20:16:29.622Z,42.83
2022-11-02T20:19:31.557Z,40.13
2022-11-02T20:22:34.553Z,43.53
2022-11-02T20:25:37.493Z,42.97
2022-11-02T20:28:40.250Z,42.17
2022-11-02T20:31:42.235Z,43.00
2022-11-02T20:34:44.151Z,41.13
2022-11-02T20:37:46.102Z,39.13
2022-11-02T20:40:48.245Z,38.90
2022-11-02T20:43:51.095Z,38.65
2022-11-02T20:46:53.674Z,39.65
2022-11-02T20:49:55.864Z,37.55
2022-11-02T20:52:58.922Z,42.60
2022-11-02T20:56:02.034Z,38.95
2022-11-02T20:59:04.043Z,37.25
2022-11-02T21:02:06.478Z,37.13
2022-11-02T21:05:08.839Z,35.97
2022-11-02T21:08:11.119Z,36.88
2022-11-02T21:11:31.515Z,31.77
2022-11-02T21:14:33.490Z,29.35
2022-11-02T21:17:35.476Z,29.27
2022-11-02T21:20:37.549Z,26.05
2022-11-02T21:23:39.823Z,26.77
2022-11-02T21:26:41.817Z,26.40
2022-11-02T21:29:43.747Z,25.47
2022-11-02T21:32:45.976Z,26.27
2022-11-02T21:35:48.307Z,25.65
2022-11-02T21:38:50.247Z,25.33
2022-11-02T21:41:52.186Z,26.02
2022-11-02T21:44:54.134Z,24.85
2022-11-02T21:47:56.149Z,25.85
2022-11-02T21:51:08.380Z,27.87
2022-11-02T21:54:10.504Z,26.52
2022-11-02T21:57:12.521Z,27.48
2022-11-02T22:00:14.695Z,26.85
2022-11-02T22:03:16.676Z,26.03
2022-11-02T22:06:20.131Z,24.75
2022-11-02T22:09:22.410Z,27.40
2022-11-02T22:12:42.643Z,27.45
2022-11-02T22:15:44.563Z,28.42
2022-11-02T22:18:48.001Z,28.80
2022-11-02T22:21:50.378Z,26.63
2022-11-02T22:24:52.343Z,25.73
2022-11-02T22:27:54.289Z,26.63
2022-11-02T22:30:56.294Z,26.85
2022-11-02T22:33:59.672Z,26.27
2022-11-02T22:37:21.575Z,26.95
2022-11-02T22:40:23.535Z,25.55
2022-11-02T22:43:25.466Z,27.67
2022-11-02T22:46:28.321Z,26.50
2022-11-02T22:49:30.289Z,27.42
2022-11-02T22:52:32.232Z,26.17
2022-11-02T22:55:34.187Z,24.70
2022-11-02T22:58:36.819Z,25.47
2022-11-02T23:01:39.181Z,22.88
2022-11-02T23:04:41.156Z,23.67
2022-11-02T23:07:43.094Z,23.58
2022-11-02T23:11:03.768Z,23.13
2022-11-02T23:14:12.689Z,21.70
2022-11-02T23:17:14.624Z,20.98
2022-11-02T23:20:16.547Z,23.03
2022-11-02T23:23:37.263Z,22.35
2022-11-02T23:26:39.232Z,22.52
2022-11-02T23:29:59.843Z,20.05
2022-11-02T23:33:01.762Z,21.50
2022-11-02T23:36:13.459Z,19.55
2022-11-02T23:39:33.958Z,20.00
2022-11-02T23:42:35.898Z,22.15
2022-11-02T23:45:37.822Z,19.40
2022-11-02T23:48:44.887Z,21.40
2022-11-02T23:52:07.506Z,19.83
2022-11-02T23:55:31.471Z,17.93
2022-11-02T23:58:33.401Z,19.17
